Time;durP1;ratioP1;P1;durP2;ratioP2;P2;SDS_P1;SDS_P2;PMS_P1;PMS_P2;Temp;Humidity;BMP_temperature;BMP_pressure;BME280_temperature;BME280_humidity;BME280_pressure;Samples;Min_cycle;Max_cycle;Signal;HPM_P1;HPM_P2
2024/02/21 00:00:03;;;;;;;;;;;;;;;8.60;67.79;100312.00;4956083;28;19973;-88
2024/02/21 00:02:28;;;;;;;;;;;;;;;8.57;67.22;100322.81;4938753;29;19922;-88
2024/02/21 00:04:53;;;;;;;;;;;;;;;8.54;66.83;100321.31;4956053;28;19914;-88
2024/02/21 00:07:19;;;;;;;;;;;;;;;8.47;66.79;100317.59;4938834;29;20359;-88
2024/02/21 00:09:44;;;;;;;;;;;;;;;8.38;67.15;100317.66;4956062;28;19918;-88
2024/02/21 00:12:09;;;;;;;;;;;;;;;8.37;67.52;100318.63;4956048;28;20507;-88
2024/02/21 00:14:34;;;;;;;;;;;;;;;8.38;67.44;100328.16;4939304;29;19926;-88
2024/02/21 00:17:00;;;;;;;;;;;;;;;8.35;66.89;100328.47;4938542;29;19997;-88
2024/02/21 00:19:25;;;;;;;;;;;;;;;8.31;66.92;100327.88;4955937;28;19925;-87
2024/02/21 00:21:50;;;;;;;;;;;;;;;8.26;67.56;100333.59;4955520;28;19915;-89
2024/02/21 00:24:16;;;;;;;;;;;;;;;8.26;67.59;100332.75;4938792;28;19970;-87
2024/02/21 00:26:41;;;;;;;;;;;;;;;8.25;67.53;100324.03;4955757;28;19937;-88
2024/02/21 00:29:06;;;;;;;;;;;;;;;8.26;67.34;100324.84;4955623;28;20316;-88
2024/02/21 00:31:31;;;;;;;;;;;;;;;8.28;67.29;100331.63;4938434;28;19921;-88
2024/02/21 00:33:57;;;;;;;;;;;;;;;8.30;66.82;100328.84;4955642;28;20391;-88
2024/02/21 00:36:23;;;;;;;;;;;;;;;8.28;67.67;100326.38;4938598;29;19914;-88
2024/02/21 00:38:48;;;;;;;;;;;;;;;8.28;67.40;100326.38;4955735;28;19915;-88
2024/02/21 00:41:13;;;;;;;;;;;;;;;8.31;66.56;100332.31;4955644;28;19914;-87
2024/02/21 00:43:38;;;;;;;;;;;;;;;8.29;66.87;100330.66;4955617;28;20373;-88
2024/02/21 00:46:05;;;;;;;;;;;;;;;8.30;66.87;100331.50;4955479;28;20004;-88
2024/02/21 00:48:30;;;;;;;;;;;;;;;8.30;66.71;100320.97;4955070;28;19936;-88
2024/02/21 00:50:55;;;;;;;;;;;;;;;8.25;67.19;100329.28;4955223;28;19921;-88
2024/02/21 00:53:21;;;;;;;;;;;;;;;8.14;67.70;100331.25;4937819;29;19969;-88
2024/02/21 00:55:46;;;;;;;;;;;;;;;8.10;68.36;100324.59;4954955;28;20280;-88
2024/02/21 00:58:11;;;;;;;;;;;;;;;8.11;68.19;100319.19;4954765;28;19961;-88
2024/02/21 01:00:37;;;;;;;;;;;;;;;8.09;67.99;100315.88;4937437;29;19918;-88
2024/02/21 01:03:02;;;;;;;;;;;;;;;8.08;68.08;100311.59;4954357;28;19922;-89
2024/02/21 01:05:29;;;;;;;;;;;;;;;8.15;67.11;100317.13;4954801;28;19914;-90
2024/02/21 01:07:54;;;;;;;;;;;;;;;8.20;67.28;100313.09;4937639;29;20384;-88
2024/02/21 01:10:19;;;;;;;;;;;;;;;8.25;67.79;100305.63;4954784;28;19922;-88
2024/02/21 01:12:45;;;;;;;;;;;;;;;8.24;68.06;100306.59;4937502;28;19954;-88
2024/02/21 01:15:11;;;;;;;;;;;;;;;8.25;67.41;100307.41;4937400;29;19964;-88
2024/02/21 01:17:36;;;;;;;;;;;;;;;8.26;67.40;100315.16;4937332;29;19914;-88
2024/02/21 01:20:02;;;;;;;;;;;;;;;8.26;67.34;100317.78;4937212;28;19921;-87
2024/02/21 01:22:28;;;;;;;;;;;;;;;8.26;67.20;100315.16;4937112;29;19919;-87
2024/02/21 01:24:53;;;;;;;;;;;;;;;8.30;67.46;100310.44;4954475;28;19981;-88
2024/02/21 01:27:19;;;;;;;;;;;;;;;8.31;67.10;100312.09;4937252;28;19918;-87
2024/02/21 01:29:46;;;;;;;;;;;;;;;8.28;67.37;100305.31;4954386;28;20360;-88
2024/02/21 01:32:11;;;;;;;;;;;;;;;8.31;67.16;100311.28;4954184;28;19921;-88
2024/02/21 01:34:37;;;;;;;;;;;;;;;8.32;67.10;100303.22;4953466;28;19914;-87
2024/02/21 01:37:04;;;;;;;;;;;;;;;8.34;67.44;100303.13;4954144;28;19921;-88
2024/02/21 01:39:29;;;;;;;;;;;;;;;8.33;67.68;100289.13;4954096;28;19914;-88
2024/02/21 01:41:54;;;;;;;;;;;;;;;8.28;68.26;100297.44;4954255;28;20327;-88
2024/02/21 01:44:20;;;;;;;;;;;;;;;8.26;67.39;100294.13;4953981;28;20010;-87
2024/02/21 01:46:45;;;;;;;;;;;;;;;8.29;67.20;100295.63;4954304;28;20376;-87
2024/02/21 01:49:10;;;;;;;;;;;;;;;8.35;67.20;100286.34;4953912;28;20009;-87
2024/02/21 01:51:36;;;;;;;;;;;;;;;8.36;67.41;100288.00;4953813;28;20399;-87
2024/02/21 01:54:02;;;;;;;;;;;;;;;8.38;67.04;100280.81;4936592;28;19919;-87
2024/02/21 01:56:27;;;;;;;;;;;;;;;8.41;67.17;100288.41;4953991;28;20427;-87
2024/02/21 01:58:52;;;;;;;;;;;;;;;8.36;67.92;100288.00;4953675;28;20392;-87
2024/02/21 02:01:18;;;;;;;;;;;;;;;8.37;67.82;100289.69;4936607;28;19993;-86
2024/02/21 02:03:45;;;;;;;;;;;;;;;8.35;68.26;100297.72;4954168;28;20312;-87
2024/02/21 02:06:10;;;;;;;;;;;;;;;8.36;68.32;100288.84;4936504;29;19962;-86
2024/02/21 02:08:36;;;;;;;;;;;;;;;8.37;68.57;100284.41;4953521;28;20411;-87
2024/02/21 02:11:01;;;;;;;;;;;;;;;8.35;67.75;100287.19;4953630;28;19972;-87
2024/02/21 02:13:27;;;;;;;;;;;;;;;8.36;67.90;100288.84;4953618;28;19937;-87
2024/02/21 02:15:52;;;;;;;;;;;;;;;8.37;67.97;100285.25;4953546;28;19918;-87
2024/02/21 02:18:18;;;;;;;;;;;;;;;8.37;67.61;100279.97;4953992;28;20364;-87
2024/02/21 02:20:44;;;;;;;;;;;;;;;8.37;68.37;100287.03;4936803;29;19922;-86
2024/02/21 02:23:10;;;;;;;;;;;;;;;8.37;67.86;100282.59;4953978;28;20457;-87
2024/02/21 02:25:36;;;;;;;;;;;;;;;8.36;67.19;100273.06;4936751;28;19989;-87
2024/02/21 02:28:01;;;;;;;;;;;;;;;8.32;67.83;100276.91;4954096;28;20001;-87
2024/02/21 02:30:26;;;;;;;;;;;;;;;8.33;67.94;100283.00;4936645;29;19922;-87
2024/02/21 02:32:52;;;;;;;;;;;;;;;8.35;67.61;100281.94;4954100;28;19977;-87
2024/02/21 02:35:17;;;;;;;;;;;;;;;8.35;68.27;100281.94;4953913;28;19920;-87
2024/02/21 02:37:49;;;;;;;;;;;;;;;8.34;67.82;100287.34;4936775;28;19914;-87
2024/02/21 02:40:14;;;;;;;;;;;;;;;8.29;67.34;100291.19;4936605;29;19964;-87
2024/02/21 02:42:40;;;;;;;;;;;;;;;8.27;67.48;100287.06;4953897;28;19958;-86
2024/02/21 02:45:05;;;;;;;;;;;;;;;8.23;67.90;100290.94;4955006;28;19930;-87
2024/02/21 02:47:30;;;;;;;;;;;;;;;8.22;67.70;100289.28;4941552;28;20311;-87
2024/02/21 02:49:56;;;;;;;;;;;;;;;8.19;67.86;100287.78;4957400;28;20402;-87
2024/02/21 02:52:21;;;;;;;;;;;;;;;8.18;67.75;100280.03;4940036;28;19966;-87
2024/02/21 02:54:51;;;;;;;;;;;;;;;8.17;67.44;100280.97;4957305;28;19915;-87
2024/02/21 02:57:17;;;;;;;;;;;;;;;8.14;68.05;100273.38;4940127;29;20308;-87
2024/02/21 02:59:42;;;;;;;;;;;;;;;8.09;68.10;100265.91;4939928;29;19969;-87
2024/02/21 03:02:07;;;;;;;;;;;;;;;8.09;67.84;100273.81;4957221;28;19922;-87
2024/02/21 03:04:33;;;;;;;;;;;;;;;8.15;67.57;100267.13;4957335;28;19914;-87
2024/02/21 03:06:58;;;;;;;;;;;;;;;8.17;68.13;100276.53;4940061;28;19915;-87
2024/02/21 03:09:23;;;;;;;;;;;;;;;8.21;67.46;100279.75;4957215;28;19914;-87
2024/02/21 03:11:48;;;;;;;;;;;;;;;8.20;68.06;100276.28;4939691;28;19921;-87
2024/02/21 03:14:13;;;;;;;;;;;;;;;8.17;67.80;100281.81;4939622;28;19922;-87
2024/02/21 03:16:39;;;;;;;;;;;;;;;8.14;67.70;100283.91;4939442;28;19937;-87
2024/02/21 03:19:04;;;;;;;;;;;;;;;8.15;67.64;100280.28;4956541;28;19915;-87
2024/02/21 03:21:29;;;;;;;;;;;;;;;8.15;68.12;100282.91;4939420;29;19918;-87
2024/02/21 03:23:55;;;;;;;;;;;;;;;8.10;67.78;100288.63;4956543;28;20289;-87
2024/02/21 03:26:20;;;;;;;;;;;;;;;8.10;67.76;100285.97;4956659;28;19922;-87
2024/02/21 03:28:46;;;;;;;;;;;;;;;8.10;67.63;100293.88;4939262;28;19918;-87
2024/02/21 03:31:13;;;;;;;;;;;;;;;8.11;68.29;100284.19;4939318;28;19922;-87
2024/02/21 03:33:38;;;;;;;;;;;;;;;8.11;67.86;100282.38;4956595;28;19914;-87
2024/02/21 03:36:04;;;;;;;;;;;;;;;8.15;67.45;100278.50;4956613;28;19922;-87
2024/02/21 03:38:29;;;;;;;;;;;;;;;8.15;68.23;100275.84;4956782;28;19922;-87
2024/02/21 03:40:54;;;;;;;;;;;;;;;8.10;68.84;100277.25;4956630;28;19969;-87
2024/02/21 03:43:19;;;;;;;;;;;;;;;8.07;69.21;100275.75;4956476;28;19919;-88
2024/02/21 03:45:45;;;;;;;;;;;;;;;8.05;68.70;100280.31;4956341;28;19918;-87
2024/02/21 03:48:10;;;;;;;;;;;;;;;8.07;67.97;100293.34;4956268;28;19914;-88
2024/02/21 03:50:35;;;;;;;;;;;;;;;8.12;67.57;100291.09;4956339;28;19921;-87
2024/02/21 03:53:01;;;;;;;;;;;;;;;8.11;68.37;100294.69;4939487;28;19978;-87
2024/02/21 03:55:26;;;;;;;;;;;;;;;8.09;68.49;100286.13;4956321;28;19918;-87
2024/02/21 03:57:51;;;;;;;;;;;;;;;8.11;68.27;100289.44;4955528;28;19918;-87
2024/02/21 04:00:17;;;;;;;;;;;;;;;8.09;68.76;100297.47;4956274;28;19914;-87
2024/02/21 04:02:42;;;;;;;;;;;;;;;8.07;68.64;100291.53;4938672;28;19929;-87
2024/02/21 04:05:10;;;;;;;;;;;;;;;8.09;68.53;100294.00;4956224;28;20003;-87
2024/02/21 04:07:36;;;;;;;;;;;;;;;8.09;68.25;100284.31;4938575;28;19937;-87
2024/02/21 04:10:01;;;;;;;;;;;;;;;8.09;68.48;100292.22;4955741;28;20384;-87
2024/02/21 04:12:26;;;;;;;;;;;;;;;8.07;68.24;100294.16;4955719;28;19977;-87
2024/02/21 04:14:52;;;;;;;;;;;;;;;8.10;67.29;100293.03;4955673;28;19918;-87
2024/02/21 04:17:17;;;;;;;;;;;;;;;8.10;68.09;100290.41;4938349;28;19918;-87
2024/02/21 04:19:42;;;;;;;;;;;;;;;8.07;68.80;100295.97;4955692;28;20009;-87
2024/02/21 04:22:07;;;;;;;;;;;;;;;8.04;69.53;100304.13;4955348;28;20380;-87
2024/02/21 04:24:33;;;;;;;;;;;;;;;8.02;68.42;100301.66;4955564;28;19921;-88
2024/02/21 04:26:58;;;;;;;;;;;;;;;8.04;68.57;100306.78;4938394;28;19914;-87
2024/02/21 04:29:23;;;;;;;;;;;;;;;8.03;67.43;100305.09;4955611;28;19915;-88
2024/02/21 04:31:49;;;;;;;;;;;;;;;7.99;68.51;100307.19;4938136;28;19915;-87
2024/02/21 04:34:14;;;;;;;;;;;;;;;7.98;68.79;100306.38;4955355;28;20581;-88
2024/02/21 04:36:39;;;;;;;;;;;;;;;7.98;69.02;100309.00;4955323;28;19921;-87
2024/02/21 04:39:04;;;;;;;;;;;;;;;7.99;68.78;100307.19;4955263;28;19925;-87
2024/02/21 04:41:30;;;;;;;;;;;;;;;8.00;68.73;100303.59;4955308;28;19921;-88
2024/02/21 04:43:55;;;;;;;;;;;;;;;8.03;69.01;100308.56;4955062;28;19922;-88
2024/02/21 04:46:20;;;;;;;;;;;;;;;8.00;69.03;100298.34;4955186;28;19915;-88
2024/02/21 04:48:46;;;;;;;;;;;;;;;8.00;69.03;100300.97;4938013;29;19922;-87
2024/02/21 04:51:11;;;;;;;;;;;;;;;8.00;69.22;100297.50;4937815;28;19915;-87
2024/02/21 04:53:37;;;;;;;;;;;;;;;7.97;69.81;100294.19;4937738;29;20417;-87
2024/02/21 04:56:02;;;;;;;;;;;;;;;7.97;68.78;100296.81;4937687;28;19921;-87
2024/02/21 04:58:27;;;;;;;;;;;;;;;7.97;68.29;100299.44;4954796;28;19957;-88
2024/02/21 05:00:54;;;;;;;;;;;;;;;8.01;69.15;100301.78;4954736;28;20336;-88
2024/02/21 05:03:19;;;;;;;;;;;;;;;8.03;68.93;100302.47;4937422;28;19929;-87
2024/02/21 05:05:45;;;;;;;;;;;;;;;8.03;69.14;100307.75;4954876;28;19915;-88
2024/02/21 05:08:10;;;;;;;;;;;;;;;8.03;68.54;100315.63;4954148;28;19918;-87
2024/02/21 05:10:35;;;;;;;;;;;;;;;8.07;67.60;100315.19;4954297;28;19961;-88
2024/02/21 05:13:01;;;;;;;;;;;;;;;8.08;68.36;100324.75;4954714;28;19914;-87
2024/02/21 05:15:26;;;;;;;;;;;;;;;8.08;67.89;100319.50;4954734;28;19998;-88
2024/02/21 05:17:52;;;;;;;;;;;;;;;8.06;68.04;100313.53;4954565;28;19919;-87
2024/02/21 05:20:17;;;;;;;;;;;;;;;8.08;67.75;100323.91;4954787;28;19920;-87
2024/02/21 05:22:43;;;;;;;;;;;;;;;8.06;67.71;100328.50;4954374;28;19918;-88
2024/02/21 05:25:08;;;;;;;;;;;;;;;8.06;67.97;100331.94;4937308;29;20439;-88
2024/02/21 05:27:34;;;;;;;;;;;;;;;8.07;67.99;100340.66;4954561;28;20455;-88
2024/02/21 05:30:00;;;;;;;;;;;;;;;8.04;67.79;100336.53;4954679;28;19922;-88
2024/02/21 05:32:26;;;;;;;;;;;;;;;7.95;67.70;100332.94;4937111;29;20381;-87
2024/02/21 05:34:51;;;;;;;;;;;;;;;7.92;68.26;100340.28;4954161;28;20315;-87
2024/02/21 05:37:16;;;;;;;;;;;;;;;7.94;68.32;100338.34;4954097;28;19919;-87
2024/02/21 05:39:41;;;;;;;;;;;;;;;7.94;67.65;100338.34;4936854;29;19914;-87
2024/02/21 05:42:07;;;;;;;;;;;;;;;7.95;67.92;100340.00;4936903;28;19918;-88
2024/02/21 05:44:32;;;;;;;;;;;;;;;7.97;67.68;100346.78;4954183;28;20371;-88
2024/02/21 05:46:57;;;;;;;;;;;;;;;8.02;67.71;100346.34;4954130;28;20406;-88
2024/02/21 05:49:23;;;;;;;;;;;;;;;8.03;68.03;100348.00;4954196;28;19914;-88
2024/02/21 05:51:48;;;;;;;;;;;;;;;8.04;68.20;100351.47;4937765;28;19937;-88
2024/02/21 05:54:13;;;;;;;;;;;;;;;8.04;68.69;100356.72;4953868;28;19914;-88
2024/02/21 05:56:39;;;;;;;;;;;;;;;8.04;67.96;100357.56;4954300;28;20380;-88
2024/02/21 05:59:04;;;;;;;;;;;;;;;8.09;66.89;100352.72;4954006;28;19914;-88
2024/02/21 06:01:29;;;;;;;;;;;;;;;8.17;66.40;100358.09;4953921;28;20404;-88
2024/02/21 06:03:54;;;;;;;;;;;;;;;8.30;67.59;100355.16;4956249;28;19977;-87
2024/02/21 06:06:21;;;;;;;;;;;;;;;8.34;67.42;100356.56;4964066;28;19961;-88
2024/02/21 06:08:47;;;;;;;;;;;;;;;8.42;66.66;100356.69;4969329;28;20004;-88
2024/02/21 06:11:12;;;;;;;;;;;;;;;8.45;67.27;100360.81;4974224;28;19953;-87
2024/02/21 06:13:40;;;;;;;;;;;;;;;8.46;67.27;100365.94;4962498;28;19911;-87
2024/02/21 06:16:06;;;;;;;;;;;;;;;8.42;67.78;100364.56;4960711;28;20076;-88
2024/02/21 06:18:32;;;;;;;;;;;;;;;7.93;68.01;100289.34;4953766;28;20455;-87
2024/02/21 06:20:57;;;;;;;;;;;;;;;8.38;68.00;100367.63;4937167;28;19950;-88
2024/02/21 06:23:22;;;;;;;;;;;;;;;8.43;67.66;100368.88;4953368;28;20331;-88
2024/02/21 06:25:48;;;;;;;;;;;;;;;8.46;66.90;100368.56;4956003;28;20399;-87
2024/02/21 06:28:13;;;;;;;;;;;;;;;8.43;66.47;100368.03;4953684;28;19914;-87
2024/02/21 06:30:39;;;;;;;;;;;;;;;8.40;67.31;100374.41;4959274;28;19957;-88
2024/02/21 06:33:05;;;;;;;;;;;;;;;8.41;66.33;100372.63;4961626;28;19978;-87
2024/02/21 06:35:30;;;;;;;;;;;;;;;8.35;66.63;100368.75;4936191;29;19915;-86
2024/02/21 06:37:55;;;;;;;;;;;;;;;8.32;67.10;100383.97;4966771;28;19921;-87
2024/02/21 06:40:21;;;;;;;;;;;;;;;8.29;67.01;100378.00;4971177;28;20404;-87
2024/02/21 06:42:46;;;;;;;;;;;;;;;8.25;67.18;100381.91;4972598;28;19925;-87
2024/02/21 06:45:12;;;;;;;;;;;;;;;8.26;67.67;100386.19;4972612;28;20366;-88
2024/02/21 06:47:37;;;;;;;;;;;;;;;8.31;67.37;100380.50;4972907;28;20404;-88
2024/02/21 06:50:02;;;;;;;;;;;;;;;8.35;67.67;100381.09;4973041;28;19921;-88
2024/02/21 06:52:28;;;;;;;;;;;;;;;8.33;67.95;100381.22;4955408;28;20459;-87
2024/02/21 06:54:53;;;;;;;;;;;;;;;8.38;66.42;100386.88;4954805;28;19985;-87
2024/02/21 06:57:18;;;;;;;;;;;;;;;8.36;66.94;100383.56;4964870;28;19918;-88
2024/02/21 06:59:43;;;;;;;;;;;;;;;8.41;67.61;100385.78;4955579;28;20005;-88
2024/02/21 07:02:09;;;;;;;;;;;;;;;8.47;67.67;100390.47;4951887;28;19976;-88
2024/02/21 07:04:34;;;;;;;;;;;;;;;8.53;67.65;100382.81;4972349;28;19914;-88
2024/02/21 07:06:59;;;;;;;;;;;;;;;8.56;67.34;100384.34;4971842;28;19914;-87
2024/02/21 07:09:24;;;;;;;;;;;;;;;8.57;67.37;100386.81;4954428;28;20053;-87
2024/02/21 07:11:50;;;;;;;;;;;;;;;8.59;67.59;100384.88;4972394;28;19921;-87
2024/02/21 07:14:15;;;;;;;;;;;;;;;8.63;67.35;100385.41;4972467;28;19918;-87
2024/02/21 07:16:40;;;;;;;;;;;;;;;8.64;67.24;100381.81;4953550;28;20380;-88
2024/02/21 07:19:06;;;;;;;;;;;;;;;8.71;66.75;100384.69;4972848;28;19922;-87
2024/02/21 07:21:31;;;;;;;;;;;;;;;8.74;66.70;100392.28;4955344;28;19961;-88
2024/02/21 07:23:56;;;;;;;;;;;;;;;8.78;66.73;100386.59;4947088;29;19965;-88
2024/02/21 07:26:22;;;;;;;;;;;;;;;8.78;66.98;100377.84;4954286;28;19918;-88
2024/02/21 07:28:47;;;;;;;;;;;;;;;8.78;67.54;100386.59;4942465;28;19919;-88
2024/02/21 07:31:12;;;;;;;;;;;;;;;8.81;67.02;100388.94;4953315;28;19914;-88
2024/02/21 07:33:37;;;;;;;;;;;;;;;8.81;66.79;100385.47;4967727;28;20336;-87
2024/02/21 07:36:07;;;;;;;;;;;;;;;8.86;66.77;100389.31;4947190;28;19976;-88
2024/02/21 07:38:32;;;;;;;;;;;;;;;8.95;66.66;100392.91;4946899;28;20288;-87
2024/02/21 07:40:58;;;;;;;;;;;;;;;9.04;66.71;100389.41;4967741;28;19925;-88
2024/02/21 07:43:23;;;;;;;;;;;;;;;9.12;66.01;100393.94;4955976;28;20292;-88
2024/02/21 07:45:48;;;;;;;;;;;;;;;9.16;65.80;100398.75;4956226;28;19992;-88
2024/02/21 07:48:13;;;;;;;;;;;;;;;9.21;65.20;100387.75;4959199;28;20291;-88
2024/02/21 07:50:39;;;;;;;;;;;;;;;9.29;65.64;100395.75;4950879;28;19914;-88
2024/02/21 07:53:04;;;;;;;;;;;;;;;9.39;64.90;100385.97;4975474;28;19917;-88
2024/02/21 07:55:29;;;;;;;;;;;;;;;9.35;64.84;100387.25;4939159;28;20037;-87
2024/02/21 07:57:54;;;;;;;;;;;;;;;9.34;64.55;100393.50;4955851;28;19919;-88
2024/02/21 08:00:21;;;;;;;;;;;;;;;9.35;65.17;100391.69;4938666;28;20372;-88
2024/02/21 08:02:47;;;;;;;;;;;;;;;9.38;65.22;100388.75;4938366;28;20305;-88
2024/02/21 08:05:13;;;;;;;;;;;;;;;9.42;65.50;100390.13;4938535;29;19914;-88
2024/02/21 08:07:38;;;;;;;;;;;;;;;9.46;65.02;100381.75;4957057;28;20394;-87
2024/02/21 08:10:04;;;;;;;;;;;;;;;9.51;65.06;100392.69;4975028;28;20023;-88
2024/02/21 08:12:29;;;;;;;;;;;;;;;9.56;65.27;100398.34;4961373;28;19918;-88
2024/02/21 08:14:54;;;;;;;;;;;;;;;9.64;64.54;100391.47;4955579;28;20381;-88
2024/02/21 08:17:20;;;;;;;;;;;;;;;9.69;64.68;100395.34;4956798;28;19997;-88
2024/02/21 08:19:45;;;;;;;;;;;;;;;9.70;64.69;100396.19;4974878;28;19925;-88
2024/02/21 08:22:10;;;;;;;;;;;;;;;9.74;64.55;100398.34;4974631;28;19915;-87
2024/02/21 08:24:35;;;;;;;;;;;;;;;9.77;64.48;100392.78;4970949;28;19934;-87
2024/02/21 08:27:01;;;;;;;;;;;;;;;9.86;64.03;100393.66;4958408;28;20307;-87
2024/02/21 08:29:26;;;;;;;;;;;;;;;9.87;64.00;100393.53;4957642;28;19918;-87
2024/02/21 08:31:52;;;;;;;;;;;;;;;9.88;64.12;100397.81;4955503;28;19914;-88
2024/02/21 08:34:18;;;;;;;;;;;;;;;9.91;64.01;100398.50;4957100;28;19922;-88
2024/02/21 08:36:43;;;;;;;;;;;;;;;9.90;63.93;100397.66;4958757;28;20383;-88
2024/02/21 08:39:09;;;;;;;;;;;;;;;9.92;63.71;100405.44;4960067;28;20315;-88
2024/02/21 08:41:34;;;;;;;;;;;;;;;9.92;63.69;100406.25;4942703;28;19957;-88
2024/02/21 08:44:00;;;;;;;;;;;;;;;9.99;63.88;100409.09;4939362;28;19929;-88
2024/02/21 08:46:26;;;;;;;;;;;;;;;10.11;64.19;100405.25;4956386;28;20450;-88
2024/02/21 08:48:51;;;;;;;;;;;;;;;10.21;63.72;100405.19;4937612;28;19915;-88
2024/02/21 08:51:17;;;;;;;;;;;;;;;10.27;62.94;100401.91;4946032;28;19925;-88
2024/02/21 08:53:43;;;;;;;;;;;;;;;10.31;63.35;100405.91;4971134;28;19968;-87
2024/02/21 08:56:08;;;;;;;;;;;;;;;10.38;63.10;100407.75;4972298;28;19918;-87
2024/02/21 08:58:35;;;;;;;;;;;;;;;10.44;62.48;100401.06;4961875;28;19925;-87
2024/02/21 09:01:01;;;;;;;;;;;;;;;10.53;62.30;100400.13;4957025;28;19926;-87
2024/02/21 09:03:26;;;;;;;;;;;;;;;10.61;62.20;100408.09;4955565;28;20364;-87
2024/02/21 09:05:51;;;;;;;;;;;;;;;10.65;61.30;100406.78;4958171;28;19914;-87
2024/02/21 09:08:16;;;;;;;;;;;;;;;10.74;61.82;100402.38;4952892;28;19918;-85
2024/02/21 09:10:42;;;;;;;;;;;;;;;10.77;61.91;100407.34;4956499;28;19937;-85
2024/02/21 09:13:08;;;;;;;;;;;;;;;10.82;60.89;100399.78;4974249;28;19922;-84
2024/02/21 09:15:34;;;;;;;;;;;;;;;10.90;60.71;100401.63;4972731;28;19915;-85
2024/02/21 09:17:59;;;;;;;;;;;;;;;10.95;61.11;100400.16;4955304;28;19988;-85
2024/02/21 09:20:24;;;;;;;;;;;;;;;10.92;60.55;100397.00;4937382;28;19918;-85
2024/02/21 09:22:50;;;;;;;;;;;;;;;10.97;59.80;100387.59;4955386;28;20459;-85
2024/02/21 09:25:15;;;;;;;;;;;;;;;11.07;59.21;100392.75;4952457;28;19921;-85
2024/02/21 09:27:40;;;;;;;;;;;;;;;11.18;60.44;100389.84;4974062;28;20363;-84
2024/02/21 09:30:06;;;;;;;;;;;;;;;11.28;59.68;100397.63;4972143;28;19914;-85
2024/02/21 09:32:35;;;;;;;;;;;;;;;11.28;59.66;100390.53;4956248;28;19918;-85
2024/02/21 09:35:01;;;;;;;;;;;;;;;11.34;58.45;100395.19;4973012;28;19949;-85
2024/02/21 09:37:26;;;;;;;;;;;;;;;11.40;57.51;100391.88;4958333;28;19914;-85
2024/02/21 09:39:52;;;;;;;;;;;;;;;11.56;58.00;100392.91;4956341;28;19926;-85
2024/02/21 09:42:24;;;;;;;;;;;;;;;11.68;58.19;100397.69;4960091;28;20391;-85
2024/02/21 09:44:50;;;;;;;;;;;;;;;11.73;56.33;100390.09;4973074;28;19918;-85
2024/02/21 09:47:19;;;;;;;;;;;;;;;11.82;57.18;100390.97;4962745;28;19918;-85
2024/02/21 09:49:44;;;;;;;;;;;;;;;11.92;57.35;100386.34;4970341;28;19918;-85
2024/02/21 09:52:11;;;;;;;;;;;;;;;12.06;57.31;100393.63;4971409;28;19921;-85
2024/02/21 09:54:37;;;;;;;;;;;;;;;12.24;56.62;100380.19;4953817;28;19972;-85
2024/02/21 09:57:03;;;;;;;;;;;;;;;12.43;55.94;100376.34;4971137;28;20257;-84
2024/02/21 09:59:30;;;;;;;;;;;;;;;12.59;56.05;100376.31;4953275;28;19925;-85
2024/02/21 10:01:55;;;;;;;;;;;;;;;12.77;55.25;100372.63;4954298;28;19972;-84
2024/02/21 10:04:20;;;;;;;;;;;;;;;12.90;54.01;100367.59;4970255;28;20017;-84
2024/02/21 10:06:46;;;;;;;;;;;;;;;12.99;54.77;100367.38;4957317;28;19926;-84
2024/02/21 10:09:27;;;;;;;;;;;;;;;13.07;54.78;100378.94;4968337;28;19925;-84
2024/02/21 10:11:52;;;;;;;;;;;;;;;13.05;54.24;100365.88;4949554;28;19922;-84
2024/02/21 10:14:18;;;;;;;;;;;;;;;13.21;53.40;100367.63;4960123;28;19918;-84
2024/02/21 10:16:44;;;;;;;;;;;;;;;13.16;53.49;100365.47;4953397;28;19915;-83
2024/02/21 10:19:19;;;;;;;;;;;;;;;13.00;52.72;100353.13;4943248;28;19918;-85
2024/02/21 10:21:44;;;;;;;;;;;;;;;12.76;53.38;100363.03;4953941;28;19918;-86
2024/02/21 10:24:12;;;;;;;;;;;;;;;12.53;53.97;100357.63;4936901;28;20426;-86
2024/02/21 10:26:37;;;;;;;;;;;;;;;12.37;53.11;100353.19;4963793;28;19926;-85
2024/02/21 10:29:03;;;;;;;;;;;;;;;12.29;54.02;100346.09;4955231;28;19921;-85
2024/02/21 10:31:28;;;;;;;;;;;;;;;12.27;53.59;100345.44;4966656;28;19918;-84
2024/02/21 10:33:57;;;;;;;;;;;;;;;12.16;52.94;100343.16;4954954;28;20311;-85
2024/02/21 10:36:22;;;;;;;;;;;;;;;12.07;52.61;100338.88;4967544;28;20005;-85
2024/02/21 10:38:48;;;;;;;;;;;;;;;11.99;53.67;100331.78;4949824;28;19997;-84
2024/02/21 10:41:14;;;;;;;;;;;;;;;12.03;55.58;100327.78;4941813;28;19937;-85
2024/02/21 10:43:42;;;;;;;;;;;;;;;12.00;53.83;100322.84;4954995;28;19928;-85
2024/02/21 10:46:12;;;;;;;;;;;;;;;11.97;56.33;100320.53;4944494;28;19918;-85
2024/02/21 10:48:47;;;;;;;;;;;;;;;12.01;56.24;100308.59;4944710;28;19980;-84
2024/02/21 10:51:20;;;;;;;;;;;;;;;12.17;53.41;100310.38;4954709;28;20017;-85
2024/02/21 10:54:03;;;;;;;;;;;;;;;12.43;52.39;100304.00;4970226;28;19918;-86
2024/02/21 10:56:30;;;;;;;;;;;;;;;12.73;51.79;100296.13;4968664;28;19922;-85
2024/02/21 10:58:57;;;;;;;;;;;;;;;12.96;51.62;100292.69;4970755;28;20064;-86
2024/02/21 11:01:23;;;;;;;;;;;;;;;13.18;50.80;100288.44;4971308;28;19975;-85
2024/02/21 11:03:49;;;;;;;;;;;;;;;13.38;49.83;100288.78;4954522;28;19922;-85
2024/02/21 11:06:15;;;;;;;;;;;;;;;13.60;52.78;100277.34;4947428;28;19925;-85
2024/02/21 11:08:40;;;;;;;;;;;;;;;13.67;49.67;100283.56;4973628;28;19930;-85
2024/02/21 11:11:06;;;;;;;;;;;;;;;13.74;44.95;100267.75;4941317;28;20431;-85
2024/02/21 11:13:32;;;;;;;;;;;;;;;13.81;47.34;100271.34;4960617;28;19969;-85
2024/02/21 11:16:10;;;;;;;;;;;;;;;13.95;48.19;100273.19;4941102;29;19919;-85
2024/02/21 11:18:36;;;;;;;;;;;;;;;13.98;45.04;100265.69;4939265;29;19950;-84
2024/02/21 11:21:04;;;;;;;;;;;;;;;13.99;46.72;100254.06;4957274;28;19964;-85
2024/02/21 11:23:30;;;;;;;;;;;;;;;14.16;47.11;100248.59;4956007;28;19969;-85
2024/02/21 11:26:08;;;;;;;;;;;;;;;14.35;47.70;100249.84;4956438;28;19922;-85
2024/02/21 11:28:33;;;;;;;;;;;;;;;14.46;43.51;100247.56;4939250;28;19919;-85
2024/02/21 11:31:13;;;;;;;;;;;;;;;14.58;39.87;100240.78;4966517;28;20321;-84
2024/02/21 11:33:42;;;;;;;;;;;;;;;14.59;45.44;100242.41;4954579;28;20012;-85
2024/02/21 11:36:08;;;;;;;;;;;;;;;14.61;40.89;100243.06;4971855;28;19918;-85
2024/02/21 11:38:33;;;;;;;;;;;;;;;14.71;42.23;100244.59;4958019;28;19934;-84
2024/02/21 11:40:58;;;;;;;;;;;;;;;14.71;43.36;100233.94;4958111;28;20312;-84
2024/02/21 11:43:24;;;;;;;;;;;;;;;14.71;41.95;100229.47;4958053;28;19922;-85
2024/02/21 11:45:49;;;;;;;;;;;;;;;14.51;37.81;100228.41;4951474;28;19936;-84
2024/02/21 11:48:15;;;;;;;;;;;;;;;14.34;40.91;100230.44;4955462;28;20367;-85
2024/02/21 11:50:40;;;;;;;;;;;;;;;14.37;45.58;100230.06;4980203;28;19917;-85
2024/02/21 11:53:05;;;;;;;;;;;;;;;14.35;38.30;100226.75;4972264;28;20313;-86
2024/02/21 11:55:31;;;;;;;;;;;;;;;14.39;39.49;100225.38;4955533;28;19915;-85
2024/02/21 11:57:56;;;;;;;;;;;;;;;14.49;42.60;100223.28;4968382;28;19918;-86
2024/02/21 12:00:21;;;;;;;;;;;;;;;14.51;42.70;100223.09;4943828;28;20013;-85
2024/02/21 12:02:47;;;;;;;;;;;;;;;14.50;41.26;100219.63;4954230;28;19926;-85
2024/02/21 12:05:13;;;;;;;;;;;;;;;14.51;42.38;100215.13;4938690;29;19921;-85
2024/02/21 12:07:41;;;;;;;;;;;;;;;14.45;42.04;100203.41;4957115;28;20332;-85
2024/02/21 12:10:10;;;;;;;;;;;;;;;14.40;41.34;100196.97;4956053;28;20384;-85
2024/02/21 12:12:37;;;;;;;;;;;;;;;14.35;42.37;100210.00;4949967;28;19960;-85
2024/02/21 12:15:04;;;;;;;;;;;;;;;14.28;43.25;100199.31;4957446;28;19918;-85
2024/02/21 12:17:29;;;;;;;;;;;;;;;14.15;44.10;100201.78;4948624;28;20005;-85
2024/02/21 12:19:54;;;;;;;;;;;;;;;14.06;43.03;100203.69;4957970;28;20371;-85
2024/02/21 12:22:19;;;;;;;;;;;;;;;14.02;42.22;100193.63;4974040;28;19921;-85
2024/02/21 12:24:47;;;;;;;;;;;;;;;13.34;38.85;100105.31;4951753;28;20463;-85
2024/02/21 12:27:13;;;;;;;;;;;;;;;13.91;43.19;100200.22;4949689;28;20406;-86
2024/02/21 12:29:38;;;;;;;;;;;;;;;13.91;41.51;100193.09;4966535;28;19919;-86
2024/02/21 12:32:04;;;;;;;;;;;;;;;13.96;43.03;100190.69;4955367;28;19921;-86
2024/02/21 12:34:31;;;;;;;;;;;;;;;14.02;39.98;100189.13;4954629;28;20407;-86